createdAt,value
2023-03-31T00:01:42.374Z,1.65
2023-03-31T00:06:45.424Z,1.33
2023-03-31T00:11:50.138Z,1.60
2023-03-31T00:16:53.222Z,0.98
2023-03-31T00:21:56.302Z,1.05
2023-03-31T00:27:00.958Z,1.48
2023-03-31T00:32:04.096Z,1.60
2023-03-31T00:37:10.251Z,1.52
2023-03-31T00:42:13.396Z,1.70
2023-03-31T00:47:21.372Z,2.15
2023-03-31T00:52:26.840Z,1.83
2023-03-31T00:57:32.855Z,2.17
2023-03-31T01:02:41.861Z,1.92
2023-03-31T01:07:48.478Z,2.17
2023-03-31T01:12:54.950Z,2.38
2023-03-31T01:17:58.660Z,2.33
2023-03-31T01:23:13.946Z,2.03
2023-03-31T01:28:39.230Z,1.95
2023-03-31T01:33:44.846Z,2.05
2023-03-31T01:39:16.726Z,2.20
2023-03-31T01:44:49.158Z,2.08
2023-03-31T01:50:07.320Z,1.90
2023-03-31T01:55:21.203Z,2.28
2023-03-31T02:00:30.331Z,1.60
2023-03-31T02:05:41.045Z,1.88
2023-03-31T02:10:46.590Z,1.63
2023-03-31T02:15:55.320Z,2.08
2023-03-31T02:21:00.791Z,2.30
2023-03-31T02:26:06.837Z,1.77
2023-03-31T02:31:53.166Z,1.73
2023-03-31T02:36:56.249Z,1.85
2023-03-31T02:41:59.812Z,1.90
2023-03-31T02:47:09.990Z,1.92
2023-03-31T02:52:18.732Z,2.30
2023-03-31T02:57:33.134Z,1.73
2023-03-31T03:02:58.098Z,1.83
2023-03-31T03:08:26.246Z,1.67
2023-03-31T03:13:38.554Z,2.35
2023-03-31T03:18:41.644Z,2.25
2023-03-31T03:23:44.767Z,2.05
2023-03-31T03:28:49.341Z,2.10
2023-03-31T03:33:53.641Z,1.92
2023-03-31T03:38:56.652Z,1.92
2023-03-31T03:44:01.003Z,2.42
2023-03-31T03:49:04.209Z,2.40
2023-03-31T03:54:07.204Z,2.03
2023-03-31T03:59:12.027Z,2.20
2023-03-31T04:04:15.901Z,1.58
2023-03-31T04:09:18.955Z,1.10
2023-03-31T04:14:22.079Z,1.73
2023-03-31T04:19:26.290Z,2.00
2023-03-31T04:24:33.476Z,1.52
2023-03-31T04:29:37.537Z,1.40
2023-03-31T04:34:40.520Z,1.65
2023-03-31T04:39:46.989Z,2.03
2023-03-31T04:44:49.980Z,1.95
2023-03-31T04:49:52.968Z,1.90
2023-03-31T04:54:56.073Z,1.80
2023-03-31T04:59:59.122Z,2.00
2023-03-31T05:05:02.194Z,1.35
2023-03-31T05:10:07.522Z,1.80
2023-03-31T05:15:11.097Z,1.67
2023-03-31T05:20:15.131Z,1.60
2023-03-31T05:25:21.079Z,1.40
2023-03-31T05:30:26.467Z,2.13
2023-03-31T05:35:30.308Z,2.05
2023-03-31T05:40:33.309Z,1.60
2023-03-31T05:45:36.693Z,2.22
2023-03-31T05:50:39.674Z,1.52
2023-03-31T05:55:42.675Z,1.75
2023-03-31T06:00:45.733Z,1.58
2023-03-31T06:05:49.570Z,1.80
2023-03-31T06:10:52.607Z,1.83
2023-03-31T06:15:58.202Z,1.20
2023-03-31T06:21:01.715Z,1.75
2023-03-31T06:26:08.598Z,1.42
2023-03-31T06:31:14.490Z,1.80
2023-03-31T06:36:23.022Z,1.45
2023-03-31T06:41:26.873Z,1.88
2023-03-31T06:46:30.201Z,1.27
2023-03-31T06:51:33.279Z,1.70
2023-03-31T06:56:36.360Z,1.25
2023-03-31T07:01:39.503Z,1.48
2023-03-31T07:06:42.589Z,1.40
2023-03-31T07:11:48.468Z,2.03
2023-03-31T07:16:51.626Z,1.60
2023-03-31T07:21:55.264Z,1.48
2023-03-31T07:26:58.395Z,1.20
2023-03-31T07:32:01.445Z,1.38
2023-03-31T07:37:04.533Z,1.70
2023-03-31T07:42:07.569Z,1.80
2023-03-31T07:47:10.725Z,1.75
2023-03-31T07:52:13.784Z,1.83
2023-03-31T07:57:19.718Z,1.38
2023-03-31T08:02:23.009Z,2.05
2023-03-31T08:07:26.636Z,1.35
2023-03-31T08:12:31.174Z,1.65
2023-03-31T08:17:34.165Z,1.35
2023-03-31T08:22:38.861Z,1.80
2023-03-31T08:27:41.942Z,1.42
2023-03-31T08:32:45.309Z,1.48
2023-03-31T08:37:48.340Z,1.38
2023-03-31T08:42:56.453Z,1.20
2023-03-31T08:48:08.911Z,1.23
2023-03-31T08:53:22.325Z,1.33
2023-03-31T08:58:45.949Z,1.30
2023-03-31T09:04:13.501Z,1.15
2023-03-31T09:09:39.050Z,2.00
2023-03-31T09:14:47.024Z,1.65
2023-03-31T09:20:22.348Z,1.77
2023-03-31T09:25:33.447Z,2.00
2023-03-31T09:30:38.400Z,1.98
2023-03-31T09:35:42.613Z,1.63
2023-03-31T09:40:47.376Z,1.42
2023-03-31T09:46:14.751Z,2.10
2023-03-31T09:51:20.994Z,1.27
2023-03-31T09:56:42.229Z,1.50
2023-03-31T10:01:47.973Z,1.63
2023-03-31T10:06:55.030Z,1.40
2023-03-31T10:12:07.588Z,1.15
2023-03-31T10:22:23.522Z,1.13
2023-03-31T10:27:32.048Z,1.48
2023-03-31T10:32:41.948Z,0.95
2023-03-31T10:37:45.246Z,1.00
2023-03-31T10:42:58.621Z,1.15
2023-03-31T10:48:04.229Z,1.25
2023-03-31T10:53:13.762Z,1.42
2023-03-31T10:58:23.747Z,1.20
2023-03-31T11:04:01.427Z,0.95
2023-03-31T11:09:39.119Z,1.20
2023-03-31T11:14:55.846Z,1.25
2023-03-31T11:20:11.519Z,1.15
2023-03-31T11:25:41.236Z,1.02
2023-03-31T11:30:56.442Z,1.10
2023-03-31T11:36:17.933Z,1.05
2023-03-31T11:41:30.492Z,2.10
2023-03-31T11:47:01.574Z,1.00
2023-03-31T11:52:15.344Z,1.10
2023-03-31T11:57:30.118Z,1.30
2023-03-31T12:02:41.970Z,1.13
2023-03-31T12:07:51.486Z,1.30
2023-03-31T12:13:03.431Z,1.73
2023-03-31T12:18:37.234Z,1.40
2023-03-31T12:23:45.019Z,1.40
2023-03-31T12:28:51.444Z,1.88
2023-03-31T12:34:06.093Z,1.77
2023-03-31T12:39:14.814Z,2.25
2023-03-31T12:44:26.706Z,1.85
2023-03-31T12:49:46.472Z,1.85
2023-03-31T12:55:00.676Z,1.75
2023-03-31T13:00:17.410Z,2.17
2023-03-31T13:05:38.333Z,2.58
2023-03-31T13:10:59.781Z,2.70
2023-03-31T13:16:03.201Z,1.58
2023-03-31T13:21:08.259Z,1.70
2023-03-31T13:26:32.894Z,2.03
2023-03-31T13:32:01.072Z,2.17
2023-03-31T13:37:23.556Z,2.35
2023-03-31T13:42:46.716Z,3.03
2023-03-31T13:48:03.408Z,2.45
2023-03-31T13:53:54.801Z,2.55
2023-03-31T13:59:26.352Z,2.83
2023-03-31T14:04:51.821Z,3.80
2023-03-31T14:09:55.364Z,2.67
2023-03-31T14:14:58.597Z,2.50
2023-03-31T14:20:10.878Z,2.42
2023-03-31T14:25:34.666Z,2.25
2023-03-31T14:31:03.185Z,2.67
2023-03-31T14:36:38.512Z,2.58
2023-03-31T14:41:42.080Z,2.45
2023-03-31T14:46:46.698Z,1.98
2023-03-31T14:51:53.416Z,3.40
2023-03-31T14:56:59.660Z,2.40
2023-03-31T15:02:05.239Z,3.00
2023-03-31T15:07:08.246Z,3.22
2023-03-31T15:12:16.122Z,2.78
2023-03-31T15:17:32.779Z,2.55
2023-03-31T15:22:36.031Z,2.53
2023-03-31T15:27:50.502Z,2.63
2023-03-31T15:33:01.356Z,2.85
2023-03-31T15:38:10.024Z,2.13
2023-03-31T15:43:26.202Z,2.90
2023-03-31T15:48:50.628Z,3.08
2023-03-31T15:53:55.115Z,3.00
2023-03-31T15:59:01.858Z,3.00
2023-03-31T16:04:10.911Z,3.10
2023-03-31T16:09:19.058Z,3.63
2023-03-31T16:14:33.865Z,2.75
2023-03-31T16:19:46.409Z,3.30
2023-03-31T16:24:50.011Z,2.92
2023-03-31T16:30:06.943Z,2.35
2023-03-31T16:35:10.011Z,2.28
2023-03-31T16:40:13.855Z,2.38
2023-03-31T16:45:16.884Z,2.63
2023-03-31T16:50:19.799Z,1.95
2023-03-31T16:55:22.758Z,3.17
2023-03-31T17:00:28.678Z,2.75
2023-03-31T17:05:34.306Z,2.25
2023-03-31T17:10:38.927Z,2.00
2023-03-31T17:15:42.007Z,3.03
2023-03-31T17:20:45.033Z,3.95
2023-03-31T17:25:53.390Z,2.95
2023-03-31T17:30:56.363Z,2.75
2023-03-31T17:35:59.590Z,3.10
2023-03-31T17:41:07.740Z,3.30
2023-03-31T17:46:12.924Z,4.72
2023-03-31T17:51:18.856Z,5.65
2023-03-31T17:56:22.237Z,5.30
2023-03-31T18:01:25.296Z,7.47
2023-03-31T18:06:28.391Z,6.10
2023-03-31T18:11:31.477Z,4.68
2023-03-31T18:16:35.666Z,3.95
2023-03-31T18:21:38.766Z,3.45
2023-03-31T18:26:42.000Z,3.05
2023-03-31T18:31:44.975Z,2.80
2023-03-31T18:36:48.070Z,3.35
2023-03-31T18:41:51.951Z,2.90
2023-03-31T18:46:55.041Z,2.97
2023-03-31T18:51:59.355Z,2.75
2023-03-31T18:57:02.638Z,2.13
2023-03-31T19:02:05.866Z,2.75
2023-03-31T19:07:08.910Z,2.45
2023-03-31T19:12:12.136Z,2.38
2023-03-31T19:17:15.166Z,2.42
2023-03-31T19:22:18.276Z,2.63
2023-03-31T19:27:21.252Z,3.20
2023-03-31T19:32:24.255Z,2.58
2023-03-31T19:37:27.622Z,2.70
2023-03-31T19:42:30.838Z,2.20
2023-03-31T19:47:33.996Z,2.75
2023-03-31T19:52:37.019Z,3.72
2023-03-31T19:57:41.479Z,3.03
2023-03-31T20:02:44.624Z,2.47
2023-03-31T20:07:47.808Z,2.90
2023-03-31T20:12:51.989Z,3.22
2023-03-31T20:17:57.274Z,2.83
2023-03-31T20:23:00.477Z,3.20
2023-03-31T20:28:03.481Z,3.42
2023-03-31T20:33:06.513Z,3.80
2023-03-31T20:38:09.405Z,3.78
2023-03-31T20:43:12.730Z,3.65
2023-03-31T20:48:16.085Z,3.70
2023-03-31T20:53:19.212Z,3.50
2023-03-31T20:58:22.329Z,3.45
2023-03-31T21:03:25.608Z,3.05
2023-03-31T21:08:28.645Z,3.38
2023-03-31T21:13:32.582Z,3.40
2023-03-31T21:18:37.751Z,3.38
2023-03-31T21:23:41.446Z,3.67
2023-03-31T21:28:45.192Z,3.28
2023-03-31T21:33:48.382Z,3.80
2023-03-31T21:38:53.663Z,3.50
2023-03-31T21:43:57.996Z,3.22
2023-03-31T21:49:03.059Z,4.03
2023-03-31T21:54:07.894Z,3.63
2023-03-31T21:59:10.851Z,3.25
2023-03-31T22:04:13.800Z,3.08
2023-03-31T22:09:16.869Z,2.92
2023-03-31T22:14:19.737Z,3.22
2023-03-31T22:19:22.687Z,3.22
2023-03-31T22:24:25.636Z,3.28
2023-03-31T22:29:28.584Z,2.80
2023-03-31T22:34:32.281Z,2.80
2023-03-31T22:39:35.163Z,2.17
2023-03-31T22:44:40.500Z,3.20
2023-03-31T22:49:43.668Z,2.85
2023-03-31T22:54:46.633Z,2.85
2023-03-31T22:59:49.732Z,2.65
2023-03-31T23:04:52.640Z,2.92
2023-03-31T23:09:55.614Z,3.05
2023-03-31T23:14:58.501Z,3.40
2023-03-31T23:20:02.398Z,2.95
2023-03-31T23:25:06.712Z,2.95
2023-03-31T23:30:10.283Z,3.60
2023-03-31T23:35:13.468Z,3.63
2023-03-31T23:40:16.675Z,3.22
2023-03-31T23:45:19.656Z,3.47
2023-03-31T23:50:22.622Z,4.30
2023-03-31T23:55:26.988Z,3.63
